sensor_id;sensor_type;location;lat;lon;timestamp;P1;durP1;ratioP1;P2;durP2;ratioP2
2810;SDS011;1413;52.440;13.506;2023-03-09T00:01:31;15.73;;;7.20;;
2810;SDS011;1413;52.440;13.506;2023-03-09T00:04:00;15.25;;;6.80;;
2810;SDS011;1413;52.440;13.506;2023-03-09T00:06:29;14.93;;;7.28;;
2810;SDS011;1413;52.440;13.506;2023-03-09T00:08:56;16.00;;;7.50;;
2810;SDS011;1413;52.440;13.506;2023-03-09T00:11:24;14.15;;;7.05;;
2810;SDS011;1413;52.440;13.506;2023-03-09T00:13:51;15.40;;;7.32;;
2810;SDS011;1413;52.440;13.506;2023-03-09T00:16:20;15.52;;;6.47;;
2810;SDS011;1413;52.440;13.506;2023-03-09T00:18:48;17.27;;;7.68;;
2810;SDS011;1413;52.440;13.506;2023-03-09T00:21:19;16.63;;;7.75;;
2810;SDS011;1413;52.440;13.506;2023-03-09T00:24:01;16.92;;;7.45;;
2810;SDS011;1413;52.440;13.506;2023-03-09T00:26:29;15.77;;;6.85;;
2810;SDS011;1413;52.440;13.506;2023-03-09T00:28:57;17.48;;;7.93;;
2810;SDS011;1413;52.440;13.506;2023-03-09T00:31:24;17.58;;;6.97;;
2810;SDS011;1413;52.440;13.506;2023-03-09T00:33:52;16.77;;;7.90;;
2810;SDS011;1413;52.440;13.506;2023-03-09T00:36:21;16.67;;;7.38;;
2810;SDS011;1413;52.440;13.506;2023-03-09T00:38:49;18.30;;;7.97;;
2810;SDS011;1413;52.440;13.506;2023-03-09T00:41:17;16.15;;;8.13;;
2810;SDS011;1413;52.440;13.506;2023-03-09T00:43:44;17.48;;;7.57;;
2810;SDS011;1413;52.440;13.506;2023-03-09T00:46:12;17.38;;;8.00;;
2810;SDS011;1413;52.440;13.506;2023-03-09T00:48:40;15.07;;;7.60;;
2810;SDS011;1413;52.440;13.506;2023-03-09T00:51:08;15.40;;;7.32;;
2810;SDS011;1413;52.440;13.506;2023-03-09T00:53:37;17.52;;;7.40;;
2810;SDS011;1413;52.440;13.506;2023-03-09T00:56:05;15.95;;;7.72;;
2810;SDS011;1413;52.440;13.506;2023-03-09T00:58:33;19.70;;;8.63;;
2810;SDS011;1413;52.440;13.506;2023-03-09T01:01:05;17.90;;;7.82;;
2810;SDS011;1413;52.440;13.506;2023-03-09T01:03:33;17.35;;;8.43;;
2810;SDS011;1413;52.440;13.506;2023-03-09T01:06:00;17.15;;;8.05;;
2810;SDS011;1413;52.440;13.506;2023-03-09T01:08:28;19.50;;;8.60;;
2810;SDS011;1413;52.440;13.506;2023-03-09T01:10:57;18.90;;;9.02;;
2810;SDS011;1413;52.440;13.506;2023-03-09T01:13:25;18.63;;;8.02;;
2810;SDS011;1413;52.440;13.506;2023-03-09T01:15:52;18.40;;;8.50;;
2810;SDS011;1413;52.440;13.506;2023-03-09T01:18:20;22.80;;;9.35;;
2810;SDS011;1413;52.440;13.506;2023-03-09T01:20:47;21.38;;;9.13;;
2810;SDS011;1413;52.440;13.506;2023-03-09T01:23:15;19.48;;;9.40;;
2810;SDS011;1413;52.440;13.506;2023-03-09T01:25:42;21.85;;;9.48;;
2810;SDS011;1413;52.440;13.506;2023-03-09T01:28:11;21.92;;;9.68;;
2810;SDS011;1413;52.440;13.506;2023-03-09T01:30:39;19.30;;;9.27;;
2810;SDS011;1413;52.440;13.506;2023-03-09T01:33:06;21.60;;;9.68;;
2810;SDS011;1413;52.440;13.506;2023-03-09T01:35:34;21.05;;;9.25;;
2810;SDS011;1413;52.440;13.506;2023-03-09T01:38:01;21.05;;;9.80;;
2810;SDS011;1413;52.440;13.506;2023-03-09T01:40:29;21.92;;;9.50;;
2810;SDS011;1413;52.440;13.506;2023-03-09T01:42:57;20.02;;;9.63;;
2810;SDS011;1413;52.440;13.506;2023-03-09T01:48:12;23.27;;;10.18;;
2810;SDS011;1413;52.440;13.506;2023-03-09T01:50:40;21.75;;;9.77;;
2810;SDS011;1413;52.440;13.506;2023-03-09T01:53:09;20.80;;;9.77;;
2810;SDS011;1413;52.440;13.506;2023-03-09T01:55:39;23.33;;;10.57;;
2810;SDS011;1413;52.440;13.506;2023-03-09T01:58:08;21.70;;;9.82;;
2810;SDS011;1413;52.440;13.506;2023-03-09T02:00:36;25.10;;;11.25;;
2810;SDS011;1413;52.440;13.506;2023-03-09T02:03:07;22.38;;;10.30;;
2810;SDS011;1413;52.440;13.506;2023-03-09T02:05:45;20.88;;;9.18;;
2810;SDS011;1413;52.440;13.506;2023-03-09T02:08:13;25.33;;;10.13;;
2810;SDS011;1413;52.440;13.506;2023-03-09T02:10:43;25.42;;;11.30;;
2810;SDS011;1413;52.440;13.506;2023-03-09T02:13:12;26.67;;;10.88;;
2810;SDS011;1413;52.440;13.506;2023-03-09T02:15:41;23.35;;;10.48;;
2810;SDS011;1413;52.440;13.506;2023-03-09T02:18:08;24.60;;;10.32;;
2810;SDS011;1413;52.440;13.506;2023-03-09T02:20:39;27.63;;;11.60;;
2810;SDS011;1413;52.440;13.506;2023-03-09T02:23:11;25.83;;;11.38;;
2810;SDS011;1413;52.440;13.506;2023-03-09T02:25:43;23.85;;;11.10;;
2810;SDS011;1413;52.440;13.506;2023-03-09T02:28:14;25.20;;;10.80;;
2810;SDS011;1413;52.440;13.506;2023-03-09T02:30:42;25.75;;;11.02;;
2810;SDS011;1413;52.440;13.506;2023-03-09T02:33:19;23.23;;;11.07;;
2810;SDS011;1413;52.440;13.506;2023-03-09T02:35:52;27.60;;;11.55;;
2810;SDS011;1413;52.440;13.506;2023-03-09T02:38:19;22.35;;;9.98;;
2810;SDS011;1413;52.440;13.506;2023-03-09T02:40:47;24.92;;;11.73;;
2810;SDS011;1413;52.440;13.506;2023-03-09T02:43:17;25.95;;;10.95;;
2810;SDS011;1413;52.440;13.506;2023-03-09T02:45:46;25.55;;;11.70;;
2810;SDS011;1413;52.440;13.506;2023-03-09T02:48:14;29.33;;;11.93;;
2810;SDS011;1413;52.440;13.506;2023-03-09T02:50:42;23.90;;;10.93;;
2810;SDS011;1413;52.440;13.506;2023-03-09T02:53:10;23.85;;;10.55;;
2810;SDS011;1413;52.440;13.506;2023-03-09T02:55:38;27.60;;;11.90;;
2810;SDS011;1413;52.440;13.506;2023-03-09T02:58:05;26.77;;;10.60;;
2810;SDS011;1413;52.440;13.506;2023-03-09T03:00:34;27.00;;;11.45;;
2810;SDS011;1413;52.440;13.506;2023-03-09T03:03:02;29.55;;;12.30;;
2810;SDS011;1413;52.440;13.506;2023-03-09T03:05:30;27.98;;;11.98;;
2810;SDS011;1413;52.440;13.506;2023-03-09T03:07:57;28.48;;;11.98;;
2810;SDS011;1413;52.440;13.506;2023-03-09T03:10:25;29.05;;;12.05;;
2810;SDS011;1413;52.440;13.506;2023-03-09T03:12:53;29.77;;;12.90;;
2810;SDS011;1413;52.440;13.506;2023-03-09T03:15:20;26.23;;;11.23;;
2810;SDS011;1413;52.440;13.506;2023-03-09T03:17:49;27.88;;;11.60;;
2810;SDS011;1413;52.440;13.506;2023-03-09T03:20:17;27.00;;;12.27;;
2810;SDS011;1413;52.440;13.506;2023-03-09T03:22:44;29.67;;;12.55;;
2810;SDS011;1413;52.440;13.506;2023-03-09T03:25:12;33.10;;;12.88;;
2810;SDS011;1413;52.440;13.506;2023-03-09T03:27:40;27.33;;;12.00;;
2810;SDS011;1413;52.440;13.506;2023-03-09T03:30:08;26.75;;;11.52;;
2810;SDS011;1413;52.440;13.506;2023-03-09T03:32:36;31.60;;;12.48;;
2810;SDS011;1413;52.440;13.506;2023-03-09T03:35:05;27.73;;;10.98;;
2810;SDS011;1413;52.440;13.506;2023-03-09T03:37:33;26.50;;;10.68;;
2810;SDS011;1413;52.440;13.506;2023-03-09T03:40:01;25.88;;;10.43;;
2810;SDS011;1413;52.440;13.506;2023-03-09T03:42:33;28.15;;;10.93;;
2810;SDS011;1413;52.440;13.506;2023-03-09T03:45:00;25.52;;;10.73;;
2810;SDS011;1413;52.440;13.506;2023-03-09T03:47:28;22.58;;;9.55;;
2810;SDS011;1413;52.440;13.506;2023-03-09T03:49:55;25.00;;;10.05;;
2810;SDS011;1413;52.440;13.506;2023-03-09T03:52:24;22.15;;;9.93;;
2810;SDS011;1413;52.440;13.506;2023-03-09T03:54:51;22.90;;;9.45;;
2810;SDS011;1413;52.440;13.506;2023-03-09T03:57:19;21.50;;;9.75;;
2810;SDS011;1413;52.440;13.506;2023-03-09T03:59:49;21.75;;;10.00;;
2810;SDS011;1413;52.440;13.506;2023-03-09T04:02:16;22.80;;;8.77;;
2810;SDS011;1413;52.440;13.506;2023-03-09T04:04:44;23.75;;;10.15;;
2810;SDS011;1413;52.440;13.506;2023-03-09T04:07:11;21.73;;;8.70;;
2810;SDS011;1413;52.440;13.506;2023-03-09T04:09:40;18.88;;;9.02;;
2810;SDS011;1413;52.440;13.506;2023-03-09T04:12:08;22.42;;;8.95;;
2810;SDS011;1413;52.440;13.506;2023-03-09T04:14:35;21.95;;;8.95;;
2810;SDS011;1413;52.440;13.506;2023-03-09T04:17:04;20.08;;;9.20;;
2810;SDS011;1413;52.440;13.506;2023-03-09T04:19:31;23.67;;;8.75;;
2810;SDS011;1413;52.440;13.506;2023-03-09T04:21:59;17.83;;;8.02;;
2810;SDS011;1413;52.440;13.506;2023-03-09T04:24:26;20.30;;;8.80;;
2810;SDS011;1413;52.440;13.506;2023-03-09T04:26:55;19.88;;;8.32;;
2810;SDS011;1413;52.440;13.506;2023-03-09T04:29:23;19.65;;;9.23;;
2810;SDS011;1413;52.440;13.506;2023-03-09T04:31:50;21.75;;;9.50;;
2810;SDS011;1413;52.440;13.506;2023-03-09T04:34:18;23.05;;;9.38;;
2810;SDS011;1413;52.440;13.506;2023-03-09T04:36:45;24.45;;;10.15;;
2810;SDS011;1413;52.440;13.506;2023-03-09T04:39:13;22.30;;;9.82;;
2810;SDS011;1413;52.440;13.506;2023-03-09T04:41:40;22.17;;;9.32;;
2810;SDS011;1413;52.440;13.506;2023-03-09T04:44:09;22.60;;;10.73;;
2810;SDS011;1413;52.440;13.506;2023-03-09T04:46:37;22.98;;;10.45;;
2810;SDS011;1413;52.440;13.506;2023-03-09T04:49:04;22.50;;;10.50;;
2810;SDS011;1413;52.440;13.506;2023-03-09T04:51:32;22.15;;;9.63;;
2810;SDS011;1413;52.440;13.506;2023-03-09T04:54:00;22.70;;;10.80;;
2810;SDS011;1413;52.440;13.506;2023-03-09T04:56:28;24.67;;;10.30;;
2810;SDS011;1413;52.440;13.506;2023-03-09T04:58:55;20.23;;;9.75;;
2810;SDS011;1413;52.440;13.506;2023-03-09T05:01:24;23.13;;;10.43;;
2810;SDS011;1413;52.440;13.506;2023-03-09T05:03:51;23.02;;;10.40;;
2810;SDS011;1413;52.440;13.506;2023-03-09T05:06:19;23.52;;;10.85;;
2810;SDS011;1413;52.440;13.506;2023-03-09T05:08:47;26.15;;;11.10;;
2810;SDS011;1413;52.440;13.506;2023-03-09T05:11:14;24.80;;;11.27;;
2810;SDS011;1413;52.440;13.506;2023-03-09T05:13:42;23.27;;;10.70;;
2810;SDS011;1413;52.440;13.506;2023-03-09T05:16:09;23.83;;;11.07;;
2810;SDS011;1413;52.440;13.506;2023-03-09T05:18:38;27.30;;;11.57;;
2810;SDS011;1413;52.440;13.506;2023-03-09T05:21:06;24.85;;;11.82;;
2810;SDS011;1413;52.440;13.506;2023-03-09T05:23:34;27.20;;;12.20;;
2810;SDS011;1413;52.440;13.506;2023-03-09T05:26:02;24.80;;;11.10;;
2810;SDS011;1413;52.440;13.506;2023-03-09T05:28:33;23.88;;;11.00;;
2810;SDS011;1413;52.440;13.506;2023-03-09T05:31:01;22.25;;;10.63;;
2810;SDS011;1413;52.440;13.506;2023-03-09T05:33:29;23.40;;;11.55;;
2810;SDS011;1413;52.440;13.506;2023-03-09T05:35:58;28.77;;;11.68;;
2810;SDS011;1413;52.440;13.506;2023-03-09T05:38:25;23.40;;;10.68;;
2810;SDS011;1413;52.440;13.506;2023-03-09T05:40:53;20.83;;;10.23;;
2810;SDS011;1413;52.440;13.506;2023-03-09T05:43:20;25.10;;;11.52;;
2810;SDS011;1413;52.440;13.506;2023-03-09T05:45:53;24.40;;;12.27;;
2810;SDS011;1413;52.440;13.506;2023-03-09T05:48:20;22.95;;;11.43;;
2810;SDS011;1413;52.440;13.506;2023-03-09T05:50:48;23.17;;;11.27;;
2810;SDS011;1413;52.440;13.506;2023-03-09T05:53:17;23.92;;;11.15;;
2810;SDS011;1413;52.440;13.506;2023-03-09T05:55:44;23.50;;;10.95;;
2810;SDS011;1413;52.440;13.506;2023-03-09T05:58:17;25.13;;;11.63;;
2810;SDS011;1413;52.440;13.506;2023-03-09T06:00:44;26.30;;;12.25;;
2810;SDS011;1413;52.440;13.506;2023-03-09T06:03:12;27.13;;;12.38;;
2810;SDS011;1413;52.440;13.506;2023-03-09T06:05:39;25.50;;;11.57;;
2810;SDS011;1413;52.440;13.506;2023-03-09T06:08:07;26.77;;;12.23;;
2810;SDS011;1413;52.440;13.506;2023-03-09T06:10:37;28.83;;;12.38;;
2810;SDS011;1413;52.440;13.506;2023-03-09T06:13:04;23.63;;;11.43;;
2810;SDS011;1413;52.440;13.506;2023-03-09T06:15:32;23.23;;;11.57;;
2810;SDS011;1413;52.440;13.506;2023-03-09T06:18:00;27.92;;;12.30;;
2810;SDS011;1413;52.440;13.506;2023-03-09T06:20:27;25.10;;;11.10;;
2810;SDS011;1413;52.440;13.506;2023-03-09T06:22:55;24.85;;;12.27;;
2810;SDS011;1413;52.440;13.506;2023-03-09T06:25:22;25.05;;;11.75;;
2810;SDS011;1413;52.440;13.506;2023-03-09T06:27:51;27.20;;;13.02;;
2810;SDS011;1413;52.440;13.506;2023-03-09T06:30:19;25.23;;;12.13;;
2810;SDS011;1413;52.440;13.506;2023-03-09T06:32:47;26.67;;;12.05;;
2810;SDS011;1413;52.440;13.506;2023-03-09T06:35:15;29.50;;;13.02;;
2810;SDS011;1413;52.440;13.506;2023-03-09T06:37:43;25.23;;;12.15;;
2810;SDS011;1413;52.440;13.506;2023-03-09T06:40:11;24.92;;;12.02;;
2810;SDS011;1413;52.440;13.506;2023-03-09T06:42:39;25.90;;;11.68;;
2810;SDS011;1413;52.440;13.506;2023-03-09T06:45:08;24.27;;;11.43;;
2810;SDS011;1413;52.440;13.506;2023-03-09T06:47:36;26.80;;;12.27;;
2810;SDS011;1413;52.440;13.506;2023-03-09T06:50:04;24.95;;;13.05;;
2810;SDS011;1413;52.440;13.506;2023-03-09T06:52:32;24.08;;;12.57;;
2810;SDS011;1413;52.440;13.506;2023-03-09T06:55:00;26.95;;;11.90;;
2810;SDS011;1413;52.440;13.506;2023-03-09T06:57:41;22.23;;;11.98;;
2810;SDS011;1413;52.440;13.506;2023-03-09T07:00:10;26.67;;;11.98;;
2810;SDS011;1413;52.440;13.506;2023-03-09T07:02:38;24.25;;;11.73;;
2810;SDS011;1413;52.440;13.506;2023-03-09T07:05:06;23.50;;;11.27;;
2810;SDS011;1413;52.440;13.506;2023-03-09T07:07:34;19.80;;;11.00;;
2810;SDS011;1413;52.440;13.506;2023-03-09T07:10:01;22.67;;;11.32;;
2810;SDS011;1413;52.440;13.506;2023-03-09T07:12:29;23.73;;;11.88;;
2810;SDS011;1413;52.440;13.506;2023-03-09T07:14:57;22.27;;;11.18;;
2810;SDS011;1413;52.440;13.506;2023-03-09T07:17:26;21.13;;;9.85;;
2810;SDS011;1413;52.440;13.506;2023-03-09T07:19:53;20.13;;;10.32;;
2810;SDS011;1413;52.440;13.506;2023-03-09T07:22:23;20.50;;;9.43;;
2810;SDS011;1413;52.440;13.506;2023-03-09T07:24:51;21.67;;;10.05;;
2810;SDS011;1413;52.440;13.506;2023-03-09T07:27:19;16.98;;;8.95;;
2810;SDS011;1413;52.440;13.506;2023-03-09T07:29:46;20.58;;;9.35;;
2810;SDS011;1413;52.440;13.506;2023-03-09T07:32:14;17.08;;;9.23;;
2810;SDS011;1413;52.440;13.506;2023-03-09T07:34:43;18.27;;;9.88;;
2810;SDS011;1413;52.440;13.506;2023-03-09T07:37:10;19.00;;;9.32;;
2810;SDS011;1413;52.440;13.506;2023-03-09T07:39:38;18.88;;;8.50;;
2810;SDS011;1413;52.440;13.506;2023-03-09T07:42:06;15.63;;;8.50;;
2810;SDS011;1413;52.440;13.506;2023-03-09T07:44:33;16.65;;;8.07;;
2810;SDS011;1413;52.440;13.506;2023-03-09T07:47:01;15.73;;;8.00;;
2810;SDS011;1413;52.440;13.506;2023-03-09T07:49:29;16.63;;;8.48;;
2810;SDS011;1413;52.440;13.506;2023-03-09T07:51:58;14.20;;;7.78;;
2810;SDS011;1413;52.440;13.506;2023-03-09T07:54:26;16.65;;;8.70;;
2810;SDS011;1413;52.440;13.506;2023-03-09T07:56:56;13.68;;;8.00;;
2810;SDS011;1413;52.440;13.506;2023-03-09T07:59:23;15.95;;;8.20;;
2810;SDS011;1413;52.440;13.506;2023-03-09T08:01:51;13.75;;;7.13;;
2810;SDS011;1413;52.440;13.506;2023-03-09T08:04:18;14.48;;;7.68;;
2810;SDS011;1413;52.440;13.506;2023-03-09T08:06:46;14.18;;;7.38;;
2810;SDS011;1413;52.440;13.506;2023-03-09T08:09:15;14.60;;;7.60;;
2810;SDS011;1413;52.440;13.506;2023-03-09T08:11:43;14.70;;;7.78;;
2810;SDS011;1413;52.440;13.506;2023-03-09T08:14:11;15.57;;;6.75;;
2810;SDS011;1413;52.440;13.506;2023-03-09T08:16:38;13.20;;;7.45;;
2810;SDS011;1413;52.440;13.506;2023-03-09T08:19:06;12.80;;;7.45;;
2810;SDS011;1413;52.440;13.506;2023-03-09T08:21:33;12.48;;;6.90;;
2810;SDS011;1413;52.440;13.506;2023-03-09T08:24:01;12.88;;;7.70;;
2810;SDS011;1413;52.440;13.506;2023-03-09T08:26:30;11.60;;;6.90;;
2810;SDS011;1413;52.440;13.506;2023-03-09T08:28:57;12.55;;;7.57;;
2810;SDS011;1413;52.440;13.506;2023-03-09T08:31:25;13.70;;;7.63;;
2810;SDS011;1413;52.440;13.506;2023-03-09T08:33:53;14.93;;;7.80;;
2810;SDS011;1413;52.440;13.506;2023-03-09T08:36:20;15.35;;;7.53;;
2810;SDS011;1413;52.440;13.506;2023-03-09T08:38:48;14.02;;;7.68;;
2810;SDS011;1413;52.440;13.506;2023-03-09T08:41:17;13.68;;;7.75;;
2810;SDS011;1413;52.440;13.506;2023-03-09T08:43:47;13.20;;;7.25;;
2810;SDS011;1413;52.440;13.506;2023-03-09T08:46:14;13.65;;;7.80;;
2810;SDS011;1413;52.440;13.506;2023-03-09T08:48:42;14.55;;;7.45;;
2810;SDS011;1413;52.440;13.506;2023-03-09T08:51:09;13.30;;;7.88;;
2810;SDS011;1413;52.440;13.506;2023-03-09T08:53:37;15.18;;;8.02;;
2810;SDS011;1413;52.440;13.506;2023-03-09T08:56:05;13.70;;;8.20;;
2810;SDS011;1413;52.440;13.506;2023-03-09T08:58:33;17.10;;;8.05;;
2810;SDS011;1413;52.440;13.506;2023-03-09T09:01:03;13.27;;;7.38;;
2810;SDS011;1413;52.440;13.506;2023-03-09T09:03:31;13.75;;;8.45;;
2810;SDS011;1413;52.440;13.506;2023-03-09T09:06:02;15.63;;;8.68;;
2810;SDS011;1413;52.440;13.506;2023-03-09T09:08:29;15.73;;;8.55;;
2810;SDS011;1413;52.440;13.506;2023-03-09T09:10:57;16.88;;;9.38;;
2810;SDS011;1413;52.440;13.506;2023-03-09T09:13:24;18.15;;;9.05;;
2810;SDS011;1413;52.440;13.506;2023-03-09T09:15:52;16.33;;;8.82;;
2810;SDS011;1413;52.440;13.506;2023-03-09T09:18:21;16.95;;;9.13;;
2810;SDS011;1413;52.440;13.506;2023-03-09T09:20:57;17.98;;;9.43;;
2810;SDS011;1413;52.440;13.506;2023-03-09T09:23:24;16.65;;;9.63;;
2810;SDS011;1413;52.440;13.506;2023-03-09T09:25:55;17.38;;;9.60;;
2810;SDS011;1413;52.440;13.506;2023-03-09T09:28:23;16.95;;;9.55;;
2810;SDS011;1413;52.440;13.506;2023-03-09T09:30:53;19.05;;;10.00;;
2810;SDS011;1413;52.440;13.506;2023-03-09T09:33:23;17.95;;;9.90;;
2810;SDS011;1413;52.440;13.506;2023-03-09T09:35:54;19.40;;;9.98;;
2810;SDS011;1413;52.440;13.506;2023-03-09T09:38:22;18.45;;;9.35;;
2810;SDS011;1413;52.440;13.506;2023-03-09T09:40:49;18.90;;;9.90;;
2810;SDS011;1413;52.440;13.506;2023-03-09T09:43:17;18.40;;;9.90;;
2810;SDS011;1413;52.440;13.506;2023-03-09T09:45:45;20.05;;;10.43;;
2810;SDS011;1413;52.440;13.506;2023-03-09T09:48:13;17.95;;;9.35;;
2810;SDS011;1413;52.440;13.506;2023-03-09T09:50:47;18.52;;;10.07;;
2810;SDS011;1413;52.440;13.506;2023-03-09T09:53:18;17.92;;;10.20;;
2810;SDS011;1413;52.440;13.506;2023-03-09T09:55:47;18.65;;;10.18;;
2810;SDS011;1413;52.440;13.506;2023-03-09T09:58:21;15.80;;;9.25;;
2810;SDS011;1413;52.440;13.506;2023-03-09T10:00:52;18.05;;;10.05;;
2810;SDS011;1413;52.440;13.506;2023-03-09T10:03:21;17.67;;;9.60;;
2810;SDS011;1413;52.440;13.506;2023-03-09T10:05:53;18.23;;;9.90;;
2810;SDS011;1413;52.440;13.506;2023-03-09T10:08:24;21.05;;;9.65;;
2810;SDS011;1413;52.440;13.506;2023-03-09T10:10:53;20.92;;;10.07;;
2810;SDS011;1413;52.440;13.506;2023-03-09T10:13:23;19.75;;;10.52;;
2810;SDS011;1413;52.440;13.506;2023-03-09T10:15:56;18.85;;;10.13;;
2810;SDS011;1413;52.440;13.506;2023-03-09T10:18:36;18.08;;;9.82;;
2810;SDS011;1413;52.440;13.506;2023-03-09T10:21:06;20.02;;;9.73;;
2810;SDS011;1413;52.440;13.506;2023-03-09T10:23:41;17.27;;;9.32;;
2810;SDS011;1413;52.440;13.506;2023-03-09T10:26:14;18.98;;;10.25;;
2810;SDS011;1413;52.440;13.506;2023-03-09T10:28:44;19.40;;;10.40;;
2810;SDS011;1413;52.440;13.506;2023-03-09T10:31:13;19.50;;;10.52;;
2810;SDS011;1413;52.440;13.506;2023-03-09T10:33:43;19.35;;;10.85;;
2810;SDS011;1413;52.440;13.506;2023-03-09T10:36:13;19.20;;;10.13;;
2810;SDS011;1413;52.440;13.506;2023-03-09T10:38:44;17.38;;;10.25;;
2810;SDS011;1413;52.440;13.506;2023-03-09T10:41:14;21.48;;;11.25;;
2810;SDS011;1413;52.440;13.506;2023-03-09T10:43:42;18.92;;;10.32;;
2810;SDS011;1413;52.440;13.506;2023-03-09T10:46:11;17.10;;;10.40;;
2810;SDS011;1413;52.440;13.506;2023-03-09T10:48:39;18.77;;;10.65;;
2810;SDS011;1413;52.440;13.506;2023-03-09T10:51:20;19.00;;;10.68;;
2810;SDS011;1413;52.440;13.506;2023-03-09T10:53:48;18.20;;;10.07;;
2810;SDS011;1413;52.440;13.506;2023-03-09T10:56:19;21.33;;;10.80;;
2810;SDS011;1413;52.440;13.506;2023-03-09T10:58:48;18.42;;;10.50;;
2810;SDS011;1413;52.440;13.506;2023-03-09T11:01:34;22.92;;;10.38;;
2810;SDS011;1413;52.440;13.506;2023-03-09T11:04:02;19.38;;;10.35;;
2810;SDS011;1413;52.440;13.506;2023-03-09T11:06:52;19.35;;;10.23;;
2810;SDS011;1413;52.440;13.506;2023-03-09T11:09:21;21.05;;;11.00;;
2810;SDS011;1413;52.440;13.506;2023-03-09T11:11:50;20.35;;;11.02;;
2810;SDS011;1413;52.440;13.506;2023-03-09T11:14:20;20.13;;;9.77;;
2810;SDS011;1413;52.440;13.506;2023-03-09T11:16:49;20.50;;;11.23;;
2810;SDS011;1413;52.440;13.506;2023-03-09T11:19:17;20.15;;;10.23;;
2810;SDS011;1413;52.440;13.506;2023-03-09T11:21:49;19.38;;;10.93;;
2810;SDS011;1413;52.440;13.506;2023-03-09T11:24:18;21.08;;;10.70;;
2810;SDS011;1413;52.440;13.506;2023-03-09T11:26:48;19.27;;;10.50;;
2810;SDS011;1413;52.440;13.506;2023-03-09T11:29:19;18.75;;;10.93;;
2810;SDS011;1413;52.440;13.506;2023-03-09T11:34:16;19.83;;;10.68;;
2810;SDS011;1413;52.440;13.506;2023-03-09T11:36:45;19.98;;;11.35;;
2810;SDS011;1413;52.440;13.506;2023-03-09T11:39:16;21.52;;;10.45;;
2810;SDS011;1413;52.440;13.506;2023-03-09T11:41:47;20.90;;;10.93;;
2810;SDS011;1413;52.440;13.506;2023-03-09T11:44:18;21.85;;;11.27;;
2810;SDS011;1413;52.440;13.506;2023-03-09T11:46:49;20.13;;;10.77;;
2810;SDS011;1413;52.440;13.506;2023-03-09T11:49:18;18.75;;;10.70;;
2810;SDS011;1413;52.440;13.506;2023-03-09T11:51:50;19.85;;;10.77;;
2810;SDS011;1413;52.440;13.506;2023-03-09T11:54:19;18.63;;;10.70;;
2810;SDS011;1413;52.440;13.506;2023-03-09T11:56:49;22.75;;;12.23;;
2810;SDS011;1413;52.440;13.506;2023-03-09T11:59:17;22.00;;;11.52;;
2810;SDS011;1413;52.440;13.506;2023-03-09T12:01:47;18.15;;;10.23;;
2810;SDS011;1413;52.440;13.506;2023-03-09T12:04:15;24.45;;;10.65;;
2810;SDS011;1413;52.440;13.506;2023-03-09T12:06:46;19.63;;;10.57;;
2810;SDS011;1413;52.440;13.506;2023-03-09T12:09:19;19.70;;;11.27;;
2810;SDS011;1413;52.440;13.506;2023-03-09T12:11:52;19.38;;;10.23;;
2810;SDS011;1413;52.440;13.506;2023-03-09T12:16:49;19.15;;;10.45;;
2810;SDS011;1413;52.440;13.506;2023-03-09T12:19:18;20.20;;;11.02;;
2810;SDS011;1413;52.440;13.506;2023-03-09T12:21:47;18.45;;;10.43;;
2810;SDS011;1413;52.440;13.506;2023-03-09T12:24:23;21.13;;;11.02;;
2810;SDS011;1413;52.440;13.506;2023-03-09T12:26:57;21.77;;;10.75;;
2810;SDS011;1413;52.440;13.506;2023-03-09T12:29:27;22.13;;;10.88;;
2810;SDS011;1413;52.440;13.506;2023-03-09T12:32:17;18.17;;;10.32;;
2810;SDS011;1413;52.440;13.506;2023-03-09T12:34:45;23.02;;;12.10;;
2810;SDS011;1413;52.440;13.506;2023-03-09T12:40:00;20.58;;;11.32;;
2810;SDS011;1413;52.440;13.506;2023-03-09T12:42:36;20.13;;;11.55;;
2810;SDS011;1413;52.440;13.506;2023-03-09T12:45:21;21.17;;;10.77;;
2810;SDS011;1413;52.440;13.506;2023-03-09T12:47:50;23.35;;;12.05;;
2810;SDS011;1413;52.440;13.506;2023-03-09T12:50:22;21.85;;;12.00;;
2810;SDS011;1413;52.440;13.506;2023-03-09T12:52:53;20.80;;;11.10;;
2810;SDS011;1413;52.440;13.506;2023-03-09T12:55:24;23.00;;;11.57;;
2810;SDS011;1413;52.440;13.506;2023-03-09T13:00:48;23.67;;;11.77;;
2810;SDS011;1413;52.440;13.506;2023-03-09T13:03:16;22.83;;;10.93;;
2810;SDS011;1413;52.440;13.506;2023-03-09T13:05:45;23.88;;;10.35;;
2810;SDS011;1413;52.440;13.506;2023-03-09T13:08:19;19.55;;;11.27;;
2810;SDS011;1413;52.440;13.506;2023-03-09T13:10:47;19.60;;;10.98;;
2810;SDS011;1413;52.440;13.506;2023-03-09T13:13:35;25.02;;;11.80;;
2810;SDS011;1413;52.440;13.506;2023-03-09T13:18:49;22.13;;;10.80;;
2810;SDS011;1413;52.440;13.506;2023-03-09T13:21:37;22.20;;;11.52;;
2810;SDS011;1413;52.440;13.506;2023-03-09T13:24:09;21.83;;;11.65;;
2810;SDS011;1413;52.440;13.506;2023-03-09T13:26:39;22.45;;;12.38;;
2810;SDS011;1413;52.440;13.506;2023-03-09T13:29:08;22.27;;;11.82;;
2810;SDS011;1413;52.440;13.506;2023-03-09T13:31:36;23.77;;;11.52;;
2810;SDS011;1413;52.440;13.506;2023-03-09T13:34:09;22.33;;;12.43;;
2810;SDS011;1413;52.440;13.506;2023-03-09T13:36:38;22.70;;;11.73;;
2810;SDS011;1413;52.440;13.506;2023-03-09T13:39:11;21.58;;;11.32;;
2810;SDS011;1413;52.440;13.506;2023-03-09T13:41:42;23.38;;;11.50;;
2810;SDS011;1413;52.440;13.506;2023-03-09T13:44:12;23.13;;;11.75;;
2810;SDS011;1413;52.440;13.506;2023-03-09T13:46:41;22.77;;;11.77;;
2810;SDS011;1413;52.440;13.506;2023-03-09T13:49:18;21.33;;;11.10;;
2810;SDS011;1413;52.440;13.506;2023-03-09T13:51:48;23.10;;;12.07;;
2810;SDS011;1413;52.440;13.506;2023-03-09T13:54:21;18.67;;;10.80;;
2810;SDS011;1413;52.440;13.506;2023-03-09T13:57:02;23.98;;;11.63;;
2810;SDS011;1413;52.440;13.506;2023-03-09T13:59:37;25.80;;;11.70;;
2810;SDS011;1413;52.440;13.506;2023-03-09T14:02:10;25.05;;;11.20;;
2810;SDS011;1413;52.440;13.506;2023-03-09T14:04:45;23.40;;;11.50;;
2810;SDS011;1413;52.440;13.506;2023-03-09T14:07:14;22.55;;;11.32;;
2810;SDS011;1413;52.440;13.506;2023-03-09T14:09:43;23.30;;;11.15;;
2810;SDS011;1413;52.440;13.506;2023-03-09T14:12:17;26.55;;;12.77;;
2810;SDS011;1413;52.440;13.506;2023-03-09T14:14:50;24.20;;;11.63;;
2810;SDS011;1413;52.440;13.506;2023-03-09T14:17:17;25.95;;;12.68;;
2810;SDS011;1413;52.440;13.506;2023-03-09T14:19:49;25.98;;;12.75;;
2810;SDS011;1413;52.440;13.506;2023-03-09T14:22:17;23.30;;;12.00;;
2810;SDS011;1413;52.440;13.506;2023-03-09T14:24:45;24.63;;;12.50;;
2810;SDS011;1413;52.440;13.506;2023-03-09T14:27:17;24.77;;;12.32;;
2810;SDS011;1413;52.440;13.506;2023-03-09T14:29:47;26.65;;;12.57;;
2810;SDS011;1413;52.440;13.506;2023-03-09T14:32:20;27.48;;;13.02;;
2810;SDS011;1413;52.440;13.506;2023-03-09T14:34:49;26.10;;;13.20;;
2810;SDS011;1413;52.440;13.506;2023-03-09T14:37:19;27.30;;;12.95;;
2810;SDS011;1413;52.440;13.506;2023-03-09T14:39:47;26.05;;;12.70;;
2810;SDS011;1413;52.440;13.506;2023-03-09T14:42:16;25.13;;;12.85;;
2810;SDS011;1413;52.440;13.506;2023-03-09T14:44:58;25.17;;;12.90;;
2810;SDS011;1413;52.440;13.506;2023-03-09T14:47:28;26.42;;;12.18;;
2810;SDS011;1413;52.440;13.506;2023-03-09T14:49:55;22.23;;;11.68;;
2810;SDS011;1413;52.440;13.506;2023-03-09T14:52:23;26.75;;;13.05;;
2810;SDS011;1413;52.440;13.506;2023-03-09T14:54:53;23.15;;;11.98;;
2810;SDS011;1413;52.440;13.506;2023-03-09T14:57:20;29.92;;;13.32;;
2810;SDS011;1413;52.440;13.506;2023-03-09T14:59:48;25.27;;;12.88;;
2810;SDS011;1413;52.440;13.506;2023-03-09T15:02:15;25.58;;;12.68;;
2810;SDS011;1413;52.440;13.506;2023-03-09T15:04:45;27.70;;;12.93;;
2810;SDS011;1413;52.440;13.506;2023-03-09T15:07:13;26.50;;;12.93;;